createdAt,value
2017-08-18T00:00:59.610Z,29.93
2017-08-18T00:03:27.982Z,29.97
2017-08-18T00:05:56.778Z,29.87
2017-08-18T00:08:25.126Z,28.87
2017-08-18T00:10:53.502Z,28.77
2017-08-18T00:13:22.959Z,31.23
2017-08-18T00:15:51.345Z,29.73
2017-08-18T00:18:19.707Z,26.73
2017-08-18T00:20:48.604Z,28.10
2017-08-18T00:23:16.945Z,28.00
2017-08-18T00:25:46.077Z,27.23
2017-08-18T00:28:15.063Z,25.90
2017-08-18T00:30:43.409Z,27.77
2017-08-18T00:33:12.532Z,25.90
2017-08-18T00:35:41.305Z,26.33
2017-08-18T00:38:09.664Z,26.07
2017-08-18T00:40:38.835Z,26.37
2017-08-18T00:43:07.569Z,26.73
2017-08-18T00:45:36.036Z,27.17
2017-08-18T00:48:04.391Z,26.90
2017-08-18T00:50:33.552Z,25.10
2017-08-18T00:53:01.929Z,28.17
2017-08-18T00:55:30.312Z,27.57
2017-08-18T00:57:58.948Z,27.23
2017-08-18T01:00:27.313Z,25.97
2017-08-18T01:02:55.666Z,28.87
2017-08-18T01:05:24.310Z,27.83
2017-08-18T01:07:52.681Z,29.20
2017-08-18T01:10:21.039Z,28.60
2017-08-18T01:12:49.987Z,31.90
2017-08-18T01:15:18.345Z,30.90
2017-08-18T01:17:46.693Z,30.33
2017-08-18T01:20:16.433Z,30.23
2017-08-18T01:22:44.806Z,30.30
2017-08-18T01:25:13.187Z,30.60
2017-08-18T01:27:41.854Z,29.37
2017-08-18T01:30:10.251Z,29.67
2017-08-18T01:32:38.625Z,29.90
2017-08-18T01:35:07.552Z,29.40
2017-08-18T01:37:35.899Z,30.40
2017-08-18T01:40:04.267Z,30.67
2017-08-18T01:42:33.210Z,28.60
2017-08-18T01:45:01.574Z,30.27
2017-08-18T01:47:29.896Z,30.40
2017-08-18T01:49:58.522Z,29.73
2017-08-18T01:52:26.870Z,30.97
2017-08-18T01:54:55.265Z,31.60
2017-08-18T01:57:24.302Z,30.80
2017-08-18T01:59:52.666Z,29.30
2017-08-18T02:02:20.993Z,28.47
2017-08-18T02:04:49.644Z,27.87
2017-08-18T02:07:17.990Z,28.63
2017-08-18T02:09:46.348Z,30.90
2017-08-18T02:12:15.016Z,30.43
2017-08-18T02:14:43.381Z,29.73
2017-08-18T02:17:11.738Z,28.43
2017-08-18T02:19:40.535Z,29.00
2017-08-18T02:22:08.883Z,30.33
2017-08-18T02:24:37.235Z,27.60
2017-08-18T02:27:05.873Z,28.60
2017-08-18T02:29:34.233Z,28.43
2017-08-18T02:32:03.366Z,28.70
2017-08-18T02:34:32.150Z,28.23
2017-08-18T02:37:00.522Z,28.80
2017-08-18T02:39:28.894Z,29.50
2017-08-18T02:41:57.683Z,28.60
2017-08-18T02:44:26.050Z,28.53
2017-08-18T02:46:54.410Z,29.27
2017-08-18T02:49:23.235Z,29.93
2017-08-18T02:51:51.580Z,29.47
2017-08-18T02:54:20.698Z,29.20
2017-08-18T02:56:49.494Z,28.30
2017-08-18T02:59:17.871Z,27.80
2017-08-18T03:01:46.225Z,28.30
2017-08-18T03:04:15.030Z,28.77
2017-08-18T03:06:43.381Z,28.30
2017-08-18T03:09:11.740Z,28.10
2017-08-18T03:11:40.588Z,25.50
2017-08-18T03:14:08.935Z,26.60
2017-08-18T03:16:37.307Z,25.93
2017-08-18T03:19:05.943Z,25.40
2017-08-18T03:21:34.301Z,27.00
2017-08-18T03:24:02.632Z,27.13
2017-08-18T03:26:31.481Z,25.97
2017-08-18T03:28:59.818Z,25.87
2017-08-18T03:31:28.157Z,27.60
2017-08-18T03:33:56.924Z,27.07
2017-08-18T03:36:25.302Z,26.47
2017-08-18T03:38:53.667Z,26.07
2017-08-18T03:41:22.489Z,26.60
2017-08-18T03:43:50.879Z,26.57
2017-08-18T03:46:19.230Z,26.37
2017-08-18T03:48:47.991Z,25.97
2017-08-18T03:51:16.347Z,25.80
2017-08-18T03:53:44.713Z,26.63
2017-08-18T03:56:13.347Z,27.53
2017-08-18T03:58:41.701Z,27.57
2017-08-18T04:01:10.038Z,26.57
2017-08-18T04:03:38.720Z,25.40
2017-08-18T04:06:07.119Z,25.23
2017-08-18T04:08:35.490Z,25.03
2017-08-18T04:11:04.577Z,24.90
2017-08-18T04:13:32.926Z,25.13
2017-08-18T04:16:01.274Z,25.50
2017-08-18T04:18:29.893Z,23.83
2017-08-18T04:20:58.251Z,24.40
2017-08-18T04:23:26.626Z,23.87
2017-08-18T04:25:55.304Z,24.40
2017-08-18T04:28:23.648Z,21.97
2017-08-18T04:30:52.018Z,23.30
2017-08-18T04:33:20.896Z,23.50
2017-08-18T04:35:49.264Z,21.77
2017-08-18T04:38:17.599Z,22.20
2017-08-18T04:40:46.248Z,21.57
2017-08-18T04:43:14.602Z,21.57
2017-08-18T04:45:42.937Z,21.60
2017-08-18T04:48:11.791Z,21.47
2017-08-18T04:50:40.173Z,21.00
2017-08-18T04:53:08.520Z,19.57
2017-08-18T04:55:37.384Z,18.57
2017-08-18T04:58:05.730Z,20.57
2017-08-18T05:00:34.060Z,21.17
2017-08-18T05:03:02.678Z,17.67
2017-08-18T05:05:31.022Z,19.10
2017-08-18T05:07:59.379Z,18.60
2017-08-18T05:10:28.143Z,17.90
2017-08-18T05:12:56.488Z,17.90
2017-08-18T05:15:25.609Z,20.10
2017-08-18T05:17:54.316Z,17.00
2017-08-18T05:20:22.680Z,17.37
2017-08-18T05:22:51.022Z,16.73
2017-08-18T05:25:19.655Z,15.63
2017-08-18T05:27:47.990Z,17.17
2017-08-18T05:30:17.129Z,15.73
2017-08-18T05:32:45.912Z,16.00
2017-08-18T05:35:14.271Z,16.00
2017-08-18T05:37:42.620Z,15.17
2017-08-18T05:40:11.753Z,15.70
2017-08-18T05:42:40.127Z,15.30
2017-08-18T05:45:08.476Z,16.87
2017-08-18T05:47:37.351Z,15.87
2017-08-18T05:50:05.736Z,15.87
2017-08-18T05:52:34.095Z,15.70
2017-08-18T05:55:02.762Z,15.57
2017-08-18T05:57:31.143Z,16.80
2017-08-18T05:59:59.510Z,15.30
2017-08-18T06:02:28.323Z,16.30
2017-08-18T06:04:56.671Z,16.33
2017-08-18T06:07:25.019Z,16.30
2017-08-18T06:09:53.665Z,16.57
2017-08-18T06:12:22.012Z,16.00
2017-08-18T06:14:50.358Z,16.00
2017-08-18T06:17:19.008Z,16.87
2017-08-18T06:19:47.378Z,14.87
2017-08-18T06:22:15.737Z,14.57
2017-08-18T06:24:44.701Z,15.00
2017-08-18T06:27:13.078Z,15.20
2017-08-18T06:29:41.433Z,14.70
2017-08-18T06:32:10.085Z,13.13
2017-08-18T06:34:38.446Z,13.97
2017-08-18T06:37:06.849Z,14.30
2017-08-18T06:39:35.717Z,14.00
2017-08-18T06:42:04.058Z,12.53
2017-08-18T06:44:32.407Z,12.53
2017-08-18T06:47:01.370Z,12.20
2017-08-18T06:49:29.711Z,12.07
2017-08-18T06:51:58.053Z,12.70
2017-08-18T06:54:26.685Z,11.20
2017-08-18T06:56:55.032Z,11.50
2017-08-18T06:59:23.395Z,10.40
2017-08-18T07:01:52.069Z,9.03
2017-08-18T07:04:20.407Z,9.30
2017-08-18T07:06:49.552Z,9.17
2017-08-18T07:09:18.751Z,8.27
2017-08-18T07:11:47.076Z,8.90
2017-08-18T07:14:16.207Z,8.67
2017-08-18T07:16:45.005Z,9.07
2017-08-18T07:19:13.351Z,8.97
2017-08-18T07:21:41.717Z,9.23
2017-08-18T07:24:10.441Z,9.30
2017-08-18T07:26:38.793Z,9.70
2017-08-18T07:29:07.929Z,10.53
2017-08-18T07:31:36.864Z,9.83
2017-08-18T07:34:05.231Z,10.60
2017-08-18T07:36:33.703Z,8.90
2017-08-18T07:39:02.567Z,10.50
2017-08-18T07:41:31.093Z,10.00
2017-08-18T07:43:59.438Z,10.23
2017-08-18T07:46:28.124Z,9.80
2017-08-18T07:48:56.488Z,9.70
2017-08-18T07:51:24.835Z,10.97
2017-08-18T07:53:54.560Z,10.40
2017-08-18T07:56:22.932Z,11.67
2017-08-18T07:58:51.277Z,12.97
2017-08-18T08:01:19.894Z,11.90
2017-08-18T08:03:48.256Z,11.33
2017-08-18T08:06:16.626Z,12.23
2017-08-18T08:08:45.287Z,11.67
2017-08-18T08:11:13.690Z,12.30
2017-08-18T08:13:42.076Z,15.10
2017-08-18T08:16:10.957Z,11.93
2017-08-18T08:18:39.358Z,11.53
2017-08-18T08:21:07.706Z,12.00
2017-08-18T08:23:36.392Z,11.33
2017-08-18T08:26:04.819Z,12.40
2017-08-18T08:28:33.939Z,17.00
2017-08-18T08:31:02.745Z,13.00
2017-08-18T08:33:31.131Z,11.13
2017-08-18T08:35:59.491Z,10.93
2017-08-18T08:38:28.634Z,9.40
2017-08-18T08:40:56.977Z,9.67
2017-08-18T08:43:56.294Z,8.67
2017-08-18T08:46:24.639Z,8.30
2017-08-18T08:48:52.976Z,8.80
2017-08-18T08:51:21.763Z,8.73
2017-08-18T08:53:50.932Z,9.63
2017-08-18T08:56:19.316Z,9.07
2017-08-18T08:58:48.181Z,9.83
2017-08-18T09:01:16.555Z,9.87
2017-08-18T09:03:44.908Z,9.40
2017-08-18T09:06:13.618Z,10.33
2017-08-18T09:08:41.996Z,9.70
2017-08-18T09:11:10.377Z,9.10
2017-08-18T09:13:39.017Z,8.70
2017-08-18T09:16:07.370Z,9.10
2017-08-18T09:18:35.732Z,8.20
2017-08-18T09:21:05.045Z,8.20
2017-08-18T09:23:33.407Z,7.67
2017-08-18T09:26:01.764Z,8.40
2017-08-18T09:28:30.607Z,8.20
2017-08-18T09:30:58.962Z,8.70
2017-08-18T09:33:27.351Z,7.00
2017-08-18T09:35:56.216Z,7.30
2017-08-18T09:38:24.549Z,7.90
2017-08-18T09:40:52.920Z,7.93
2017-08-18T09:43:21.983Z,7.40
2017-08-18T09:45:50.368Z,7.17
2017-08-18T09:48:37.086Z,6.70
2017-08-18T09:51:23.196Z,6.87
2017-08-18T09:54:09.660Z,6.93
2017-08-18T09:56:55.589Z,7.87
2017-08-18T09:59:24.461Z,7.70
2017-08-18T10:01:52.816Z,6.80
2017-08-18T10:04:21.224Z,7.90
2017-08-18T10:06:50.104Z,6.60
2017-08-18T10:09:18.484Z,6.20
2017-08-18T10:11:46.865Z,7.30
2017-08-18T10:14:15.515Z,7.47
2017-08-18T10:16:43.864Z,7.67
2017-08-18T10:19:12.279Z,6.60
2017-08-18T10:21:41.403Z,6.77
2017-08-18T10:24:09.780Z,7.73
2017-08-18T10:26:38.143Z,7.43
2017-08-18T10:29:07.051Z,6.97
2017-08-18T10:31:35.427Z,7.60
2017-08-18T10:34:03.778Z,7.00
2017-08-18T10:36:32.535Z,8.00
2017-08-18T10:39:00.919Z,8.17
2017-08-18T10:41:29.289Z,9.20
2017-08-18T10:43:58.110Z,8.07
2017-08-18T10:46:26.459Z,7.90
2017-08-18T10:48:55.423Z,7.73
2017-08-18T10:51:24.071Z,7.80
2017-08-18T10:53:52.455Z,7.23
2017-08-18T10:56:20.839Z,7.20
2017-08-18T10:58:49.647Z,7.63
2017-08-18T11:01:18.006Z,7.40
2017-08-18T11:03:46.340Z,6.60
2017-08-18T11:06:15.078Z,7.97
2017-08-18T11:08:43.447Z,7.43
2017-08-18T11:11:12.562Z,6.70
2017-08-18T11:13:41.176Z,7.27
2017-08-18T11:16:09.532Z,6.90
2017-08-18T11:18:37.903Z,6.60
2017-08-18T11:21:06.673Z,7.03
2017-08-18T11:23:35.018Z,7.20
2017-08-18T11:26:03.358Z,7.30
2017-08-18T11:28:32.248Z,7.00
2017-08-18T11:31:00.617Z,7.43
2017-08-18T11:33:28.974Z,10.50
2017-08-18T11:35:57.691Z,7.33
2017-08-18T11:38:26.090Z,7.50
2017-08-18T11:40:54.463Z,6.57
2017-08-18T11:43:23.144Z,6.30
2017-08-18T11:45:51.489Z,7.20
2017-08-18T11:48:20.631Z,7.77
2017-08-18T11:50:49.703Z,7.80
2017-08-18T11:53:18.087Z,7.03
2017-08-18T11:55:46.428Z,6.97
2017-08-18T11:58:15.270Z,10.00
2017-08-18T12:00:43.654Z,6.37
2017-08-18T12:03:11.999Z,7.20
2017-08-18T12:05:40.629Z,7.50
2017-08-18T12:08:08.971Z,7.43
2017-08-18T12:10:37.320Z,6.40
2017-08-18T12:13:07.174Z,6.03
2017-08-18T12:15:35.567Z,6.73
2017-08-18T12:18:03.915Z,6.63
2017-08-18T12:20:32.611Z,7.00
2017-08-18T12:23:00.946Z,5.90
2017-08-18T12:25:29.277Z,6.57
2017-08-18T12:27:58.060Z,7.27
2017-08-18T12:30:26.443Z,6.60
2017-08-18T12:32:54.797Z,5.83
2017-08-18T12:35:23.687Z,7.23
2017-08-18T12:37:52.067Z,7.80
2017-08-18T12:40:20.447Z,7.10
2017-08-18T12:42:49.085Z,6.47
2017-08-18T12:45:17.430Z,7.13
2017-08-18T12:47:45.805Z,7.70
2017-08-18T12:50:14.493Z,5.33
2017-08-18T12:52:42.858Z,5.50
2017-08-18T12:55:11.202Z,5.70
2017-08-18T12:57:40.254Z,5.70
2017-08-18T13:00:08.604Z,5.80
2017-08-18T13:02:36.964Z,6.33
2017-08-18T13:05:05.718Z,6.10
2017-08-18T13:07:34.096Z,5.60
2017-08-18T13:10:02.458Z,5.23
2017-08-18T13:12:31.089Z,5.50
2017-08-18T13:14:59.438Z,5.43
2017-08-18T13:17:27.798Z,5.60
2017-08-18T13:19:56.799Z,5.67
2017-08-18T13:22:25.192Z,5.80
2017-08-18T13:24:53.557Z,5.10
2017-08-18T13:27:22.417Z,6.07
2017-08-18T13:29:50.758Z,5.00
2017-08-18T13:32:19.113Z,4.60
2017-08-18T13:34:47.862Z,4.20
2017-08-18T13:37:16.260Z,5.00
2017-08-18T13:39:44.639Z,4.37
2017-08-18T13:42:13.365Z,4.10
2017-08-18T13:44:41.733Z,4.37
2017-08-18T13:47:10.084Z,4.03
2017-08-18T13:49:38.977Z,4.10
2017-08-18T13:52:07.326Z,4.30
2017-08-18T13:54:35.650Z,5.30
2017-08-18T13:57:04.427Z,4.47
2017-08-18T13:59:32.779Z,4.80
2017-08-18T14:02:01.886Z,3.93
2017-08-18T14:04:31.407Z,3.90
2017-08-18T14:06:59.734Z,4.30
2017-08-18T14:09:28.093Z,4.43
2017-08-18T14:11:56.758Z,3.10
2017-08-18T14:14:25.108Z,3.10
2017-08-18T14:16:53.491Z,3.70
2017-08-18T14:19:22.502Z,3.53
2017-08-18T14:21:50.951Z,3.37
2017-08-18T14:24:19.306Z,2.77
2017-08-18T14:26:53.883Z,3.03
2017-08-18T14:29:22.497Z,3.40
2017-08-18T14:31:50.850Z,3.33
2017-08-18T14:34:19.551Z,2.93
2017-08-18T14:36:47.919Z,2.77
2017-08-18T14:39:16.264Z,3.60
2017-08-18T14:41:45.766Z,3.17
2017-08-18T14:44:14.129Z,3.90
2017-08-18T14:46:42.487Z,2.80
2017-08-18T14:49:11.476Z,2.73
2017-08-18T14:51:39.844Z,3.13
2017-08-18T14:54:08.207Z,2.90
2017-08-18T14:56:36.928Z,2.80
2017-08-18T14:59:05.287Z,2.70
2017-08-18T15:01:33.981Z,2.70
2017-08-18T15:04:03.423Z,2.70
2017-08-18T15:06:31.791Z,3.60
2017-08-18T15:09:00.150Z,3.10
2017-08-18T15:11:29.095Z,3.30
2017-08-18T15:13:57.455Z,2.97
2017-08-18T15:16:25.805Z,3.40
2017-08-18T15:18:54.435Z,3.23
2017-08-18T15:21:23.543Z,3.10
2017-08-18T15:23:52.670Z,3.10
2017-08-18T15:26:21.439Z,2.87
2017-08-18T15:28:49.783Z,3.20
2017-08-18T15:31:18.131Z,3.33
2017-08-18T15:33:47.297Z,3.17
2017-08-18T15:36:15.642Z,3.07
2017-08-18T15:38:44.781Z,3.17
2017-08-18T15:41:13.772Z,3.27
2017-08-18T15:43:42.104Z,3.13
2017-08-18T15:46:10.447Z,3.53
2017-08-18T15:48:39.206Z,2.93
2017-08-18T15:51:07.551Z,3.67
2017-08-18T15:53:35.893Z,4.80
2017-08-18T15:56:04.799Z,3.20
2017-08-18T15:58:33.164Z,3.40
2017-08-18T16:01:01.511Z,4.50
2017-08-18T16:03:30.127Z,4.20
2017-08-18T16:05:58.468Z,3.97
2017-08-18T16:08:26.830Z,4.30
2017-08-18T16:10:55.572Z,3.73
2017-08-18T16:13:23.946Z,3.50
2017-08-18T16:15:52.286Z,3.63
2017-08-18T16:18:21.042Z,3.80
2017-08-18T16:20:49.420Z,4.30
2017-08-18T16:23:17.779Z,3.67
2017-08-18T16:25:46.487Z,4.30
2017-08-18T16:28:14.893Z,3.87
2017-08-18T16:30:43.273Z,4.33
2017-08-18T16:33:12.918Z,3.40
2017-08-18T16:35:41.255Z,3.90
2017-08-18T16:38:10.399Z,3.93
2017-08-18T16:40:39.087Z,3.80
2017-08-18T16:43:07.500Z,3.33
2017-08-18T16:45:35.871Z,3.77
2017-08-18T16:48:04.507Z,4.50
2017-08-18T16:50:32.859Z,4.10
2017-08-18T16:53:01.220Z,4.23
2017-08-18T16:55:29.879Z,4.30
2017-08-18T16:57:58.231Z,4.30
2017-08-18T17:00:26.570Z,4.30
2017-08-18T17:02:55.720Z,4.37
2017-08-18T17:05:24.068Z,4.10
2017-08-18T17:07:53.157Z,4.53
2017-08-18T17:10:21.961Z,5.20
2017-08-18T17:12:50.302Z,4.40
2017-08-18T17:15:18.663Z,4.37
2017-08-18T17:17:47.418Z,4.33
2017-08-18T17:20:15.803Z,4.87
2017-08-18T17:22:44.147Z,4.93
2017-08-18T17:25:12.968Z,5.00
2017-08-18T17:27:41.313Z,5.40
2017-08-18T17:30:09.670Z,5.00
2017-08-18T17:32:38.519Z,5.77
2017-08-18T17:35:06.874Z,4.93
2017-08-18T17:37:35.984Z,5.83
2017-08-18T17:40:04.615Z,5.33
2017-08-18T17:42:32.951Z,5.60
2017-08-18T17:45:01.282Z,5.33
2017-08-18T17:47:30.224Z,5.40
2017-08-18T17:49:58.583Z,7.63
2017-08-18T17:52:27.702Z,6.33
2017-08-18T17:54:56.706Z,6.50
2017-08-18T17:57:25.079Z,6.00
2017-08-18T17:59:53.422Z,6.63
2017-08-18T18:02:22.050Z,6.50
2017-08-18T18:04:50.398Z,6.70
2017-08-18T18:07:18.735Z,7.27
2017-08-18T18:09:47.668Z,6.90
2017-08-18T18:12:16.799Z,7.73
2017-08-18T18:14:45.156Z,7.47
2017-08-18T18:17:13.795Z,7.80
2017-08-18T18:19:42.162Z,8.60
2017-08-18T18:22:10.637Z,8.37
2017-08-18T18:24:39.303Z,7.70
2017-08-18T18:27:07.642Z,8.73
2017-08-18T18:29:35.982Z,7.47
2017-08-18T18:32:04.744Z,8.47
2017-08-18T18:34:33.095Z,9.03
2017-08-18T18:37:02.247Z,8.30
2017-08-18T18:39:31.017Z,9.00
2017-08-18T18:42:00.118Z,10.40
2017-08-18T18:44:30.603Z,10.20
2017-08-18T18:46:59.316Z,11.47
2017-08-18T18:49:27.683Z,9.97
2017-08-18T18:51:56.063Z,10.53
2017-08-18T18:54:25.048Z,11.43
2017-08-18T18:56:54.169Z,10.90
2017-08-18T18:59:22.548Z,12.53
2017-08-18T19:01:51.257Z,13.20
2017-08-18T19:04:19.643Z,11.27
2017-08-18T19:06:48.035Z,12.00
2017-08-18T19:09:16.630Z,11.17
2017-08-18T19:11:44.991Z,11.10
2017-08-18T19:14:13.355Z,11.10
2017-08-18T19:16:41.955Z,11.47
2017-08-18T19:19:10.323Z,10.90
2017-08-18T19:21:38.694Z,12.20
2017-08-18T19:24:07.281Z,11.17
2017-08-18T19:26:35.652Z,10.87
2017-08-18T19:29:03.987Z,11.17
2017-08-18T19:31:32.517Z,10.83
2017-08-18T19:34:00.874Z,11.57
2017-08-18T19:36:29.223Z,12.90
2017-08-18T19:38:58.938Z,12.90
2017-08-18T19:41:28.083Z,11.23
2017-08-18T19:43:56.440Z,12.47
2017-08-18T19:46:25.146Z,11.83
2017-08-18T19:48:53.507Z,12.23
2017-08-18T19:51:21.864Z,11.97
2017-08-18T19:53:50.582Z,12.70
2017-08-18T19:56:18.989Z,10.20
2017-08-18T19:58:47.379Z,8.90
2017-08-18T20:01:15.980Z,8.60
2017-08-18T20:03:44.321Z,5.67
2017-08-18T20:06:12.683Z,6.27
2017-08-18T20:08:41.283Z,6.57
2017-08-18T20:11:09.618Z,6.50
2017-08-18T20:13:37.966Z,6.60
2017-08-18T20:16:06.734Z,6.70
2017-08-18T20:18:35.102Z,5.80
2017-08-18T20:21:03.452Z,6.20
2017-08-18T20:23:32.318Z,6.07
2017-08-18T20:26:00.712Z,5.80
2017-08-18T20:28:29.837Z,5.87
2017-08-18T20:30:58.401Z,5.63
2017-08-18T20:33:26.802Z,6.50
2017-08-18T20:35:55.156Z,6.57
2017-08-18T20:38:23.893Z,5.93
2017-08-18T20:40:52.246Z,4.93
2017-08-18T20:43:20.606Z,5.60
2017-08-18T20:45:49.288Z,4.60
2017-08-18T20:48:17.651Z,5.73
2017-08-18T20:50:46.004Z,5.47
2017-08-18T20:53:14.767Z,5.60
2017-08-18T20:55:43.110Z,5.20
2017-08-18T20:58:11.481Z,5.40
2017-08-18T21:00:40.212Z,5.30
2017-08-18T21:03:08.553Z,4.90
2017-08-18T21:05:37.690Z,4.80
2017-08-18T21:08:06.367Z,5.00
2017-08-18T21:10:34.710Z,4.77
2017-08-18T21:13:03.065Z,5.20
2017-08-18T21:15:31.920Z,5.70
2017-08-18T21:18:00.289Z,4.70
2017-08-18T21:20:28.672Z,5.80
2017-08-18T21:22:57.353Z,5.90
2017-08-18T21:25:25.764Z,5.33
2017-08-18T21:27:54.117Z,6.27
2017-08-18T21:30:23.001Z,5.60
2017-08-18T21:32:51.352Z,5.97
2017-08-18T21:35:20.474Z,5.57
2017-08-18T21:37:49.026Z,5.53
2017-08-18T21:40:17.378Z,6.10
2017-08-18T21:42:45.774Z,5.83
2017-08-18T21:45:14.522Z,6.20
2017-08-18T21:47:42.915Z,5.60
2017-08-18T21:50:11.283Z,6.60
2017-08-18T21:52:39.869Z,6.30
2017-08-18T21:55:08.207Z,6.07
2017-08-18T21:57:36.556Z,5.83
2017-08-18T22:00:05.207Z,6.07
2017-08-18T22:02:33.575Z,5.90
2017-08-18T22:05:01.937Z,5.70
2017-08-18T22:07:30.509Z,6.07
2017-08-18T22:09:59.640Z,5.93
2017-08-18T22:12:27.976Z,6.40
2017-08-18T22:14:56.708Z,6.37
2017-08-18T22:17:25.071Z,6.80
2017-08-18T22:19:53.418Z,6.40
2017-08-18T22:22:21.949Z,7.20
2017-08-18T22:24:50.308Z,6.57
2017-08-18T22:27:18.657Z,6.60
2017-08-18T22:29:47.239Z,7.33
2017-08-18T22:32:15.601Z,7.77
2017-08-18T22:34:43.943Z,7.40
2017-08-18T22:37:12.826Z,7.00
2017-08-18T22:39:41.195Z,8.07
2017-08-18T22:42:10.311Z,8.80
2017-08-18T22:44:39.241Z,8.30
2017-08-18T22:47:07.596Z,8.43
2017-08-18T22:49:35.978Z,8.90
2017-08-18T22:52:04.536Z,7.90
2017-08-18T22:54:32.885Z,9.60
2017-08-18T22:57:01.262Z,9.73
2017-08-18T22:59:29.947Z,9.03
2017-08-18T23:01:58.312Z,9.60
2017-08-18T23:04:26.644Z,9.60
2017-08-18T23:06:55.439Z,10.83
2017-08-18T23:09:23.869Z,10.37
2017-08-18T23:11:52.227Z,10.17
2017-08-18T23:14:20.883Z,11.60
2017-08-18T23:16:49.263Z,11.63
2017-08-18T23:19:17.627Z,11.17
2017-08-18T23:21:46.743Z,12.50
2017-08-18T23:24:15.115Z,13.17
2017-08-18T23:26:43.463Z,15.23
2017-08-18T23:29:12.166Z,14.73
2017-08-18T23:31:40.509Z,15.27
2017-08-18T23:34:08.851Z,16.60
2017-08-18T23:36:37.614Z,19.00
2017-08-18T23:39:06.006Z,18.43
2017-08-18T23:41:34.351Z,18.77
2017-08-18T23:44:03.218Z,20.27
2017-08-18T23:46:31.566Z,20.10
2017-08-18T23:48:59.923Z,20.10
2017-08-18T23:51:28.468Z,21.77
2017-08-18T23:53:56.842Z,23.63
2017-08-18T23:56:25.240Z,26.03
2017-08-18T23:58:53.780Z,24.27
